createdAt,value
2022-11-24T00:01:16.606Z,16.60
2022-11-24T00:03:45.506Z,11.40
2022-11-24T00:06:14.825Z,11.52
2022-11-24T00:08:45.806Z,16.50
2022-11-24T00:11:16.095Z,15.02
2022-11-24T00:13:43.852Z,14.25
2022-11-24T00:16:12.637Z,21.95
2022-11-24T00:18:41.069Z,12.48
2022-11-24T00:21:08.778Z,17.08
2022-11-24T00:23:36.842Z,11.40
2022-11-24T00:26:31.731Z,15.25
2022-11-24T00:29:01.364Z,17.88
2022-11-24T00:31:31.532Z,12.13
2022-11-24T00:34:00.985Z,16.67
2022-11-24T00:36:30.133Z,17.52
2022-11-24T00:38:59.576Z,33.78
2022-11-24T00:41:28.449Z,36.17
2022-11-24T00:43:55.904Z,26.83
2022-11-24T00:46:23.627Z,22.25
2022-11-24T00:48:51.253Z,22.10
2022-11-24T00:51:19.501Z,25.05
2022-11-24T00:53:46.551Z,18.95
2022-11-24T00:56:14.164Z,23.00
2022-11-24T00:58:41.283Z,18.40
2022-11-24T01:01:16.309Z,27.85
2022-11-24T01:03:43.648Z,18.80
2022-11-24T01:06:19.893Z,31.40
2022-11-24T01:08:47.605Z,26.05
2022-11-24T01:11:54.860Z,20.42
2022-11-24T01:14:24.374Z,35.03
2022-11-24T01:16:51.923Z,37.22
2022-11-24T01:19:19.641Z,32.72
2022-11-24T01:21:47.111Z,34.38
2022-11-24T01:24:14.584Z,24.20
2022-11-24T01:26:42.094Z,30.63
2022-11-24T01:29:10.909Z,27.63
2022-11-24T01:31:37.923Z,26.52
2022-11-24T01:34:04.947Z,24.10
2022-11-24T01:36:32.053Z,20.63
2022-11-24T01:38:59.091Z,18.38
2022-11-24T01:41:26.837Z,15.95
2022-11-24T01:43:55.281Z,24.83
2022-11-24T01:46:37.207Z,17.65
2022-11-24T01:49:36.445Z,21.43
2022-11-24T01:52:33.458Z,23.23
2022-11-24T01:55:06.176Z,12.32
2022-11-24T01:57:41.820Z,14.02
2022-11-24T02:00:13.035Z,16.95
2022-11-24T02:02:45.227Z,18.38
2022-11-24T02:05:41.491Z,14.35
2022-11-24T02:08:18.823Z,16.40
2022-11-24T02:10:46.218Z,11.07
2022-11-24T02:13:14.896Z,12.98
2022-11-24T02:15:42.347Z,19.92
2022-11-24T02:18:09.476Z,14.70
2022-11-24T02:20:36.749Z,14.00
2022-11-24T02:23:17.774Z,17.58
2022-11-24T02:25:53.008Z,18.00
2022-11-24T02:28:22.684Z,16.17
2022-11-24T02:30:50.862Z,10.35
2022-11-24T02:33:19.321Z,12.57
2022-11-24T02:35:46.325Z,15.63
2022-11-24T02:38:14.020Z,14.32
2022-11-24T02:40:46.265Z,12.48
2022-11-24T02:43:17.481Z,21.63
2022-11-24T02:45:44.578Z,16.65
2022-11-24T02:48:11.586Z,15.75
2022-11-24T02:50:38.575Z,19.92
2022-11-24T02:53:05.580Z,13.85
2022-11-24T02:55:32.954Z,31.10
2022-11-24T02:57:59.982Z,21.20
2022-11-24T03:00:27.125Z,16.63
2022-11-24T03:02:54.243Z,22.38
2022-11-24T03:05:21.281Z,19.17
2022-11-24T03:07:48.300Z,20.90
2022-11-24T03:10:16.036Z,19.67
2022-11-24T03:12:43.065Z,30.45
2022-11-24T03:15:10.526Z,24.33
2022-11-24T03:17:37.651Z,18.67
2022-11-24T03:20:05.502Z,26.67
2022-11-24T03:22:32.601Z,27.15
2022-11-24T03:24:59.674Z,27.75
2022-11-24T03:27:26.954Z,17.27
2022-11-24T03:29:53.965Z,26.63
2022-11-24T03:32:20.992Z,11.10
2022-11-24T03:34:48.008Z,27.13
2022-11-24T03:37:15.377Z,24.38
2022-11-24T03:39:42.604Z,24.70
2022-11-24T03:42:09.674Z,16.17
2022-11-24T03:44:36.802Z,15.60
2022-11-24T03:47:03.864Z,22.15
2022-11-24T03:49:30.926Z,17.75
2022-11-24T03:51:58.025Z,23.45
2022-11-24T03:54:25.052Z,16.25
2022-11-24T03:56:52.077Z,28.00
2022-11-24T03:59:19.301Z,21.08
2022-11-24T04:01:46.457Z,22.95
2022-11-24T04:04:13.794Z,27.20
2022-11-24T04:06:41.411Z,18.38
2022-11-24T04:09:09.055Z,16.83
2022-11-24T04:11:54.528Z,18.85
2022-11-24T04:14:21.579Z,11.73
2022-11-24T04:16:48.667Z,21.38
2022-11-24T04:19:15.712Z,15.80
2022-11-24T04:21:42.729Z,24.23
2022-11-24T04:24:09.787Z,21.02
2022-11-24T04:26:36.869Z,16.38
2022-11-24T04:29:04.115Z,23.83
2022-11-24T04:31:31.165Z,17.52
2022-11-24T04:33:58.136Z,23.17
2022-11-24T04:36:25.127Z,22.58
2022-11-24T04:39:24.246Z,20.90
2022-11-24T04:41:40.945Z,18.17
2022-11-24T04:44:07.950Z,19.42
2022-11-24T04:46:35.039Z,18.02
2022-11-24T04:49:02.109Z,29.00
2022-11-24T04:51:29.145Z,19.88
2022-11-24T04:53:56.229Z,16.20
2022-11-24T04:56:23.279Z,13.60
2022-11-24T04:58:50.346Z,19.67
2022-11-24T05:01:17.375Z,20.95
2022-11-24T05:03:44.465Z,11.50
2022-11-24T05:06:11.906Z,23.60
2022-11-24T05:08:38.970Z,19.27
2022-11-24T05:11:07.300Z,19.55
2022-11-24T05:13:34.470Z,24.70
2022-11-24T05:16:01.760Z,19.25
2022-11-24T05:18:28.993Z,16.88
2022-11-24T05:20:58.357Z,23.77
2022-11-24T05:23:25.950Z,23.60
2022-11-24T05:25:53.454Z,14.35
2022-11-24T05:28:20.444Z,18.92
2022-11-24T05:30:47.434Z,21.83
2022-11-24T05:33:19.193Z,32.25
2022-11-24T05:35:48.241Z,30.98
2022-11-24T05:38:16.637Z,23.20
2022-11-24T05:40:44.022Z,48.28
2022-11-24T05:43:15.710Z,18.35
2022-11-24T05:45:43.475Z,24.87
2022-11-24T05:48:13.161Z,25.85
2022-11-24T05:50:40.482Z,26.25
2022-11-24T05:53:10.239Z,31.92
2022-11-24T05:55:38.297Z,19.20
2022-11-24T05:58:08.714Z,16.90
2022-11-24T06:00:36.509Z,27.83
2022-11-24T06:03:04.067Z,28.45
2022-11-24T06:05:31.577Z,39.72
2022-11-24T06:08:00.415Z,33.95
2022-11-24T06:10:28.251Z,34.20
2022-11-24T06:12:55.578Z,31.10
2022-11-24T06:15:22.789Z,32.78
2022-11-24T06:17:56.661Z,28.45
2022-11-24T06:20:28.345Z,56.63
2022-11-24T06:22:59.165Z,37.75
2022-11-24T06:25:26.302Z,20.30
2022-11-24T06:27:53.314Z,25.63
2022-11-24T06:30:20.336Z,27.40
2022-11-24T06:32:50.004Z,23.92
2022-11-24T06:35:17.438Z,28.65
2022-11-24T06:37:45.637Z,32.95
2022-11-24T06:40:13.131Z,22.30
2022-11-24T06:42:40.113Z,13.48
2022-11-24T06:45:09.295Z,28.80
2022-11-24T06:47:37.064Z,17.58
2022-11-24T06:50:04.753Z,27.55
2022-11-24T06:52:31.727Z,23.75
2022-11-24T06:54:58.740Z,30.70
2022-11-24T06:57:27.530Z,25.88
2022-11-24T06:59:54.570Z,31.67
2022-11-24T07:02:21.581Z,23.17
2022-11-24T07:04:48.567Z,22.98
2022-11-24T07:07:15.652Z,38.92
2022-11-24T07:09:42.824Z,22.20
2022-11-24T07:12:09.821Z,23.70
2022-11-24T07:14:37.045Z,33.95
2022-11-24T07:17:04.751Z,39.45
2022-11-24T07:19:32.030Z,27.40
2022-11-24T07:21:59.302Z,27.95
2022-11-24T07:24:26.289Z,31.10
2022-11-24T07:26:53.339Z,25.80
2022-11-24T07:29:20.325Z,26.02
2022-11-24T07:31:47.390Z,18.30
2022-11-24T07:34:14.741Z,20.67
2022-11-24T07:36:42.852Z,26.98
2022-11-24T07:39:09.893Z,15.70
2022-11-24T07:41:36.916Z,23.58
2022-11-24T07:44:04.130Z,23.60
2022-11-24T07:46:31.181Z,15.57
2022-11-24T07:48:58.228Z,23.45
2022-11-24T07:51:25.258Z,21.15
2022-11-24T07:53:52.291Z,16.98
2022-11-24T07:56:19.281Z,29.60
2022-11-24T07:58:51.319Z,26.63
2022-11-24T08:01:20.276Z,17.10
2022-11-24T08:03:47.738Z,19.10
2022-11-24T08:06:25.410Z,22.63
2022-11-24T08:08:53.469Z,30.55
2022-11-24T08:11:20.449Z,14.23
2022-11-24T08:13:47.638Z,19.38
2022-11-24T08:16:17.103Z,17.15
2022-11-24T08:18:50.072Z,18.30
2022-11-24T08:21:17.203Z,17.92
2022-11-24T08:23:44.213Z,15.68
2022-11-24T08:26:15.711Z,17.17
2022-11-24T08:28:43.451Z,16.30
2022-11-24T08:31:13.660Z,20.17
2022-11-24T08:33:41.863Z,25.08
2022-11-24T08:36:16.473Z,28.55
2022-11-24T08:38:44.757Z,17.20
2022-11-24T08:41:14.480Z,19.75
2022-11-24T08:43:42.397Z,16.52
2022-11-24T08:46:12.427Z,13.18
2022-11-24T08:48:40.415Z,20.77
2022-11-24T08:51:10.549Z,18.90
2022-11-24T08:53:38.383Z,28.85
2022-11-24T08:56:05.957Z,30.15
2022-11-24T08:58:34.012Z,15.75
2022-11-24T09:01:14.622Z,9.10
2022-11-24T09:03:48.615Z,30.98
2022-11-24T09:06:19.681Z,21.98
2022-11-24T09:08:46.841Z,38.30
2022-11-24T09:11:15.427Z,23.63
2022-11-24T09:13:43.238Z,16.60
2022-11-24T09:16:13.374Z,15.93
2022-11-24T09:18:40.459Z,35.80
2022-11-24T09:21:20.527Z,17.75
2022-11-24T09:23:49.791Z,22.25
2022-11-24T09:26:23.132Z,17.85
2022-11-24T09:28:54.195Z,21.65
2022-11-24T09:31:24.137Z,17.23
2022-11-24T09:33:52.371Z,21.35
2022-11-24T09:36:20.281Z,24.83
2022-11-24T09:38:47.532Z,20.42
2022-11-24T09:41:17.678Z,15.25
2022-11-24T09:43:56.613Z,23.20
2022-11-24T09:46:32.890Z,12.05
2022-11-24T09:49:02.644Z,21.13
2022-11-24T09:51:32.311Z,26.35
2022-11-24T09:54:09.264Z,13.02
2022-11-24T09:56:40.518Z,20.80
2022-11-24T09:59:15.675Z,15.13
2022-11-24T10:01:44.665Z,19.30
2022-11-24T10:04:24.848Z,23.70
2022-11-24T10:06:57.159Z,13.30
2022-11-24T10:09:49.160Z,15.13
2022-11-24T10:12:36.480Z,10.75
2022-11-24T10:15:27.063Z,14.70
2022-11-24T10:18:03.895Z,20.45
2022-11-24T10:20:31.268Z,19.70
2022-11-24T10:23:05.156Z,22.75
2022-11-24T10:25:56.501Z,8.45
2022-11-24T10:28:32.258Z,11.65
2022-11-24T10:31:17.212Z,12.85
2022-11-24T10:33:44.667Z,10.82
2022-11-24T10:36:20.366Z,10.13
2022-11-24T10:38:59.804Z,11.40
2022-11-24T10:41:45.774Z,17.35
2022-11-24T10:44:14.955Z,13.93
2022-11-24T10:46:42.276Z,18.13
2022-11-24T10:49:18.806Z,10.13
2022-11-24T10:52:02.037Z,15.13
2022-11-24T10:54:29.263Z,16.35
2022-11-24T10:56:56.305Z,16.30
2022-11-24T10:59:38.375Z,8.38
2022-11-24T11:02:40.190Z,11.68
2022-11-24T11:05:43.824Z,15.95
2022-11-24T11:08:13.888Z,13.30
2022-11-24T11:10:42.813Z,18.95
2022-11-24T11:13:30.318Z,16.65
2022-11-24T11:15:58.874Z,20.48
2022-11-24T11:18:33.087Z,8.68
2022-11-24T11:21:02.406Z,19.05
2022-11-24T11:23:35.825Z,6.13
2022-11-24T11:26:17.926Z,21.23
2022-11-24T11:35:05.022Z,16.48
2022-11-24T11:37:33.491Z,16.50
2022-11-24T11:40:01.226Z,15.02
2022-11-24T11:45:37.731Z,10.68
2022-11-24T11:48:21.954Z,15.13
2022-11-24T11:51:23.266Z,12.98
2022-11-24T11:54:06.604Z,12.25
2022-11-24T11:56:44.987Z,17.52
2022-11-24T11:59:14.905Z,11.63
2022-11-24T12:02:02.958Z,15.18
2022-11-24T12:04:48.504Z,14.38
2022-11-24T12:07:40.997Z,17.35
2022-11-24T12:10:13.884Z,17.48
2022-11-24T12:12:47.866Z,20.13
2022-11-24T12:15:33.799Z,12.73
2022-11-24T12:18:57.561Z,10.70
2022-11-24T12:21:59.575Z,16.15
2022-11-24T12:24:50.834Z,17.08
2022-11-24T12:27:38.987Z,10.73
2022-11-24T12:30:12.486Z,9.40
2022-11-24T12:32:54.561Z,16.88
2022-11-24T12:35:37.399Z,12.27
2022-11-24T12:41:18.007Z,11.07
2022-11-24T12:43:54.909Z,10.38
2022-11-24T12:47:11.735Z,17.60
2022-11-24T12:50:02.225Z,26.27
2022-11-24T12:52:35.336Z,15.18
2022-11-24T12:55:03.474Z,13.68
2022-11-24T12:57:37.375Z,9.35
2022-11-24T13:00:15.806Z,18.35
2022-11-24T13:03:10.681Z,11.55
2022-11-24T13:05:59.403Z,9.30
2022-11-24T13:08:28.887Z,25.20
2022-11-24T13:11:21.429Z,11.55
2022-11-24T13:14:05.471Z,9.95
2022-11-24T13:16:37.138Z,20.17
2022-11-24T13:19:15.047Z,14.98
2022-11-24T13:21:42.864Z,20.45
2022-11-24T13:26:49.823Z,19.73
2022-11-24T13:29:32.664Z,15.27
2022-11-24T13:34:38.783Z,18.73
2022-11-24T13:37:31.326Z,13.52
2022-11-24T13:40:31.361Z,16.27
2022-11-24T13:43:00.370Z,12.70
2022-11-24T13:45:52.640Z,12.63
2022-11-24T13:48:19.817Z,18.02
2022-11-24T13:50:49.947Z,19.05
2022-11-24T13:53:46.285Z,15.52
2022-11-24T13:56:13.276Z,15.65
2022-11-24T13:58:50.163Z,14.60
2022-11-24T14:01:22.485Z,25.15
2022-11-24T14:04:29.453Z,15.02
2022-11-24T14:06:51.524Z,11.30
2022-11-24T14:09:42.267Z,23.95
2022-11-24T14:12:20.695Z,16.98
2022-11-24T14:14:50.113Z,25.17
2022-11-24T14:17:23.018Z,19.27
2022-11-24T14:19:53.284Z,19.27
2022-11-24T14:22:39.169Z,11.85
2022-11-24T14:25:19.427Z,16.20
2022-11-24T14:27:46.539Z,12.50
2022-11-24T14:30:16.474Z,22.30
2022-11-24T14:32:58.005Z,15.35
2022-11-24T14:35:28.978Z,21.30
2022-11-24T14:37:56.280Z,13.40
2022-11-24T14:40:40.402Z,16.48
2022-11-24T14:43:25.825Z,13.30
2022-11-24T14:45:55.678Z,20.42
2022-11-24T14:48:26.954Z,12.85
2022-11-24T14:51:04.371Z,17.38
2022-11-24T14:53:31.816Z,21.17
2022-11-24T14:56:25.285Z,23.58
2022-11-24T14:58:53.345Z,25.83
2022-11-24T15:01:22.232Z,18.90
2022-11-24T15:04:17.907Z,19.83
2022-11-24T15:07:25.612Z,20.42
2022-11-24T15:09:58.445Z,25.42
2022-11-24T15:12:31.474Z,21.38
2022-11-24T15:15:03.435Z,21.63
2022-11-24T15:17:31.114Z,23.58
2022-11-24T15:20:23.387Z,21.75
2022-11-24T15:22:52.344Z,34.95
2022-11-24T15:25:33.705Z,20.98
2022-11-24T15:28:01.074Z,22.23
2022-11-24T15:30:29.262Z,21.27
2022-11-24T15:32:58.155Z,22.00
2022-11-24T15:35:28.649Z,24.65
2022-11-24T15:37:55.747Z,16.80
2022-11-24T15:40:23.169Z,26.20
2022-11-24T15:42:55.177Z,22.00
2022-11-24T15:45:24.518Z,20.30
2022-11-24T15:47:52.463Z,24.60
2022-11-24T15:50:20.392Z,25.00
2022-11-24T15:52:48.644Z,22.35
2022-11-24T15:55:21.059Z,25.60
2022-11-24T15:57:48.756Z,17.15
2022-11-24T16:00:21.964Z,23.38
2022-11-24T16:02:49.736Z,21.15
2022-11-24T16:05:17.744Z,19.40
2022-11-24T16:07:45.579Z,19.85
2022-11-24T16:10:38.825Z,27.23
2022-11-24T16:13:06.033Z,19.30
2022-11-24T16:15:33.037Z,30.90
2022-11-24T16:18:00.064Z,28.25
2022-11-24T16:20:27.142Z,27.23
2022-11-24T16:22:54.706Z,26.02
2022-11-24T16:25:21.676Z,19.30
2022-11-24T16:27:48.678Z,17.90
2022-11-24T16:30:15.809Z,29.38
2022-11-24T16:32:42.862Z,31.33
2022-11-24T16:35:10.066Z,21.40
2022-11-24T16:37:37.102Z,14.75
2022-11-24T16:40:04.978Z,24.70
2022-11-24T16:42:32.241Z,27.10
2022-11-24T16:44:59.342Z,21.83
2022-11-24T16:47:26.383Z,23.23
2022-11-24T16:49:53.568Z,19.92
2022-11-24T16:52:20.586Z,12.07
2022-11-24T16:54:47.683Z,22.00
2022-11-24T16:57:15.595Z,19.52
2022-11-24T16:59:46.153Z,14.15
2022-11-24T17:02:13.354Z,28.48
2022-11-24T17:04:40.426Z,23.67
2022-11-24T17:07:08.167Z,25.13
2022-11-24T17:09:40.274Z,25.35
2022-11-24T17:12:07.954Z,24.73
2022-11-24T17:14:35.294Z,20.67
2022-11-24T17:17:04.656Z,22.98
2022-11-24T17:19:31.812Z,18.67
2022-11-24T17:21:59.010Z,28.10
2022-11-24T17:24:26.152Z,21.45
2022-11-24T17:26:54.276Z,21.65
2022-11-24T17:29:21.272Z,28.23
2022-11-24T17:31:48.367Z,30.00
2022-11-24T17:34:15.417Z,30.80
2022-11-24T17:36:45.812Z,44.97
2022-11-24T17:39:13.221Z,45.17
2022-11-24T17:41:40.216Z,42.10
2022-11-24T17:44:08.600Z,30.98
2022-11-24T17:46:37.141Z,35.53
2022-11-24T17:49:04.481Z,39.70
2022-11-24T17:51:31.500Z,36.92
2022-11-24T17:53:58.558Z,45.85
2022-11-24T17:56:27.392Z,52.67
2022-11-24T17:58:59.322Z,47.35
2022-11-24T18:01:30.045Z,50.10
2022-11-24T18:03:57.893Z,47.45
2022-11-24T18:06:25.999Z,56.55
2022-11-24T18:08:53.982Z,68.50
2022-11-24T18:11:30.169Z,57.97
2022-11-24T18:14:01.650Z,50.58
2022-11-24T18:16:31.358Z,48.45
2022-11-24T18:19:09.914Z,38.55
2022-11-24T18:21:39.034Z,29.55
2022-11-24T18:24:08.140Z,32.20
2022-11-24T18:26:35.725Z,34.65
2022-11-24T18:29:02.977Z,45.55
2022-11-24T18:31:31.113Z,37.53
2022-11-24T18:33:59.676Z,41.97
2022-11-24T18:36:30.590Z,37.42
2022-11-24T18:39:01.887Z,33.00
2022-11-24T18:41:28.908Z,30.20
2022-11-24T18:43:55.964Z,28.40
2022-11-24T18:46:22.988Z,25.65
2022-11-24T18:48:52.929Z,41.25
2022-11-24T18:51:20.042Z,49.95
2022-11-24T18:53:51.730Z,80.55
2022-11-24T18:56:18.948Z,77.13
2022-11-24T18:58:46.534Z,61.63
2022-11-24T19:01:18.817Z,43.70
2022-11-24T19:03:54.657Z,45.42
2022-11-24T19:06:33.475Z,49.33
2022-11-24T19:09:03.356Z,43.53
2022-11-24T19:11:34.011Z,37.50
2022-11-24T19:14:02.556Z,29.60
2022-11-24T19:16:30.047Z,43.78
2022-11-24T19:18:59.856Z,30.45
2022-11-24T19:21:28.396Z,38.20
2022-11-24T19:23:59.798Z,26.55
2022-11-24T19:26:30.329Z,32.63
2022-11-24T19:28:57.347Z,39.60
2022-11-24T19:31:25.658Z,35.53
2022-11-24T19:33:54.562Z,33.03
2022-11-24T19:36:22.092Z,40.83
2022-11-24T19:38:51.086Z,42.95
2022-11-24T19:41:19.923Z,39.75
2022-11-24T19:43:47.363Z,35.45
2022-11-24T19:46:16.898Z,24.95
2022-11-24T19:48:46.383Z,28.92
2022-11-24T19:51:15.811Z,23.20
2022-11-24T19:53:43.478Z,34.35
2022-11-24T19:56:17.084Z,25.00
2022-11-24T19:58:44.561Z,22.30
2022-11-24T20:01:14.261Z,26.95
2022-11-24T20:03:42.793Z,27.95
2022-11-24T20:06:13.726Z,30.88
2022-11-24T20:08:41.982Z,41.00
2022-11-24T20:11:14.673Z,40.80
2022-11-24T20:13:43.412Z,39.65
2022-11-24T20:16:15.618Z,36.83
2022-11-24T20:18:45.343Z,38.10
2022-11-24T20:21:15.838Z,40.33
2022-11-24T20:23:43.574Z,34.33
2022-11-24T20:26:15.781Z,40.25
2022-11-24T20:28:42.834Z,51.00
2022-11-24T20:31:18.018Z,35.83
2022-11-24T20:33:45.684Z,38.63
2022-11-24T20:36:18.670Z,25.08
2022-11-24T20:38:45.965Z,33.63
2022-11-24T20:41:16.075Z,31.38
2022-11-24T20:43:44.534Z,29.83
2022-11-24T20:46:14.897Z,35.75
2022-11-24T20:48:42.677Z,29.83
2022-11-24T20:51:15.942Z,35.33
2022-11-24T20:53:43.397Z,23.83
2022-11-24T20:56:12.169Z,26.05
2022-11-24T20:58:39.369Z,34.90
2022-11-24T21:01:15.281Z,33.53
2022-11-24T21:03:43.878Z,33.50
2022-11-24T21:06:12.638Z,30.15
2022-11-24T21:08:41.378Z,28.08
2022-11-24T21:11:11.088Z,44.00
2022-11-24T21:13:40.171Z,35.33
2022-11-24T21:16:17.771Z,30.10
2022-11-24T21:18:47.115Z,31.52
2022-11-24T21:21:14.535Z,39.10
2022-11-24T21:23:41.530Z,29.90
2022-11-24T21:26:14.911Z,46.90
2022-11-24T21:28:46.398Z,35.90
2022-11-24T21:31:19.500Z,39.15
2022-11-24T21:33:49.857Z,36.90
2022-11-24T21:36:19.601Z,35.72
2022-11-24T21:38:54.924Z,42.25
2022-11-24T21:41:24.052Z,49.60
2022-11-24T21:43:52.660Z,45.28
2022-11-24T21:46:19.786Z,34.15
2022-11-24T21:48:46.874Z,28.75
2022-11-24T21:51:17.002Z,38.35
2022-11-24T21:53:45.650Z,27.33
2022-11-24T21:56:17.841Z,42.78
2022-11-24T21:58:47.263Z,30.05
2022-11-24T22:01:16.069Z,38.53
2022-11-24T22:03:43.609Z,30.38
2022-11-24T22:06:11.408Z,24.42
2022-11-24T22:08:38.623Z,28.30
2022-11-24T22:11:09.734Z,41.45
2022-11-24T22:13:36.754Z,23.02
2022-11-24T22:16:09.143Z,30.27
2022-11-24T22:18:38.382Z,21.35
2022-11-24T22:21:07.470Z,44.13
2022-11-24T22:23:35.997Z,21.33
2022-11-24T22:26:05.457Z,29.15
2022-11-24T22:28:35.123Z,21.20
2022-11-24T22:31:06.994Z,25.10
2022-11-24T22:33:34.574Z,26.17
2022-11-24T22:36:02.572Z,36.13
2022-11-24T22:38:31.361Z,22.13
2022-11-24T22:41:06.272Z,22.65
2022-11-24T22:43:34.771Z,18.70
2022-11-24T22:46:06.352Z,19.13
2022-11-24T22:48:33.837Z,34.67
2022-11-24T22:51:05.656Z,25.27
2022-11-24T22:53:33.141Z,23.90
2022-11-24T22:56:04.656Z,16.92
2022-11-24T22:58:32.944Z,18.17
2022-11-24T23:01:08.087Z,20.67
2022-11-24T23:03:36.079Z,24.35
2022-11-24T23:06:08.310Z,34.40
2022-11-24T23:08:36.310Z,26.35
2022-11-24T23:11:14.245Z,45.10
2022-11-24T23:13:41.652Z,24.88
2022-11-24T23:16:17.410Z,34.33
2022-11-24T23:18:49.813Z,28.35
2022-11-24T23:21:25.142Z,34.05
2022-11-24T23:23:53.092Z,30.70
2022-11-24T23:26:25.501Z,31.33
2022-11-24T23:28:52.765Z,32.58
2022-11-24T23:31:24.004Z,27.17
2022-11-24T23:33:51.120Z,33.45
2022-11-24T23:36:19.991Z,28.05
2022-11-24T23:38:47.883Z,28.17
2022-11-24T23:41:21.034Z,34.88
2022-11-24T23:43:48.549Z,51.15
2022-11-24T23:46:20.252Z,42.08
2022-11-24T23:48:48.698Z,38.17
2022-11-24T23:51:23.729Z,38.40
2022-11-24T23:53:51.415Z,38.03
2022-11-24T23:56:27.176Z,32.78
2022-11-24T23:58:54.233Z,28.27
